createdAt,value
2022-08-12T00:02:57.245Z,20.8
2022-08-12T00:08:48.187Z,21
2022-08-12T00:14:40.225Z,21
2022-08-12T00:20:31.524Z,20.4
2022-08-12T00:26:24.510Z,20.4
2022-08-12T00:32:16.599Z,20.7
2022-08-12T00:38:39.656Z,20.5
2022-08-12T00:44:31.753Z,20.1
2022-08-12T00:50:24.489Z,20.4
2022-08-12T00:56:17.993Z,20.3
2022-08-12T01:02:10.855Z,19.8
2022-08-12T01:08:04.731Z,20.5
2022-08-12T01:13:55.195Z,19.8
2022-08-12T01:19:46.511Z,20.1
2022-08-12T01:25:41.453Z,19.7
2022-08-12T01:31:45.468Z,19.9
2022-08-12T01:37:36.447Z,20
2022-08-12T01:43:28.640Z,20
2022-08-12T01:49:21.676Z,19.6
2022-08-12T01:55:14.246Z,19.2
2022-08-12T02:01:05.653Z,19.5
2022-08-12T02:06:57.063Z,19.1
2022-08-12T02:12:49.272Z,19
2022-08-12T02:18:40.634Z,19
2022-08-12T02:24:31.742Z,18.8
2022-08-12T02:30:22.667Z,18.6
2022-08-12T02:36:26.918Z,18.7
2022-08-12T02:42:24.214Z,18.8
2022-08-12T02:48:17.006Z,18.2
2022-08-12T02:54:08.812Z,18.5
2022-08-12T03:00:00.476Z,18.1
2022-08-12T03:05:52.714Z,18.3
2022-08-12T03:11:48.870Z,18.7
2022-08-12T03:17:44.638Z,18.4
2022-08-12T03:24:14.670Z,18
2022-08-12T03:30:05.852Z,17.9
2022-08-12T03:35:57.901Z,18.1
2022-08-12T03:41:49.913Z,18.1
2022-08-12T03:47:45.429Z,18.2
2022-08-12T03:53:37.214Z,18.1
2022-08-12T03:59:28.877Z,18
2022-08-12T04:05:20.807Z,18
2022-08-12T04:11:45.725Z,18.1
2022-08-12T04:17:37.697Z,17.7
2022-08-12T04:23:56.119Z,17.6
2022-08-12T04:30:16.234Z,17.9
2022-08-12T04:36:21.767Z,17.7
2022-08-12T04:42:15.369Z,17.3
2022-08-12T04:48:07.284Z,17.8
2022-08-12T04:54:03.004Z,17.9
2022-08-12T04:59:54.941Z,17.8
2022-08-12T05:05:47.324Z,17.8
2022-08-12T05:11:39.848Z,17.8
2022-08-12T05:17:48.911Z,18.6
2022-08-12T05:23:44.988Z,19.3
2022-08-12T05:30:48.918Z,20
2022-08-12T05:36:42.734Z,21.6
2022-08-12T05:42:36.451Z,21.4
2022-08-12T05:48:33.058Z,23.3
2022-08-12T05:54:54.557Z,23.6
2022-08-12T06:00:47.345Z,24.3
2022-08-12T06:06:39.755Z,26.2
2022-08-12T06:12:32.678Z,30.2
2022-08-12T06:18:29.691Z,24.6
2022-08-12T06:24:27.105Z,23.6
2022-08-12T06:30:24.195Z,23.5
2022-08-12T06:36:36.866Z,23.4
2022-08-12T06:42:33.806Z,23.6
2022-08-12T06:48:25.046Z,23.9
2022-08-12T06:54:31.423Z,23.6
2022-08-12T07:00:21.687Z,23.9
2022-08-12T07:06:20.886Z,24.1
2022-08-12T07:12:12.068Z,24.2
2022-08-12T07:18:03.331Z,24.3
2022-08-12T07:23:54.616Z,24.3
2022-08-12T07:29:57.706Z,24.5
2022-08-12T07:35:54.068Z,24.6
2022-08-12T07:41:43.481Z,24.8
2022-08-12T07:47:33.806Z,25
2022-08-12T07:53:24.643Z,25
2022-08-12T07:59:17.219Z,25.1
2022-08-12T08:05:08.576Z,25.2
2022-08-12T08:11:06.196Z,25.3
2022-08-12T08:17:02.016Z,25.5
2022-08-12T08:22:53.655Z,25.6
2022-08-12T08:28:50.945Z,25.9
2022-08-12T08:34:53.218Z,26
2022-08-12T08:40:48.375Z,26
2022-08-12T08:46:41.091Z,26.1
2022-08-12T08:52:39.965Z,26.3
2022-08-12T08:58:33.703Z,26.3
2022-08-12T09:05:10.433Z,26.9
2022-08-12T09:12:07.731Z,26.9
2022-08-12T09:18:15.343Z,27.2
2022-08-12T09:24:32.647Z,27.4
2022-08-12T09:30:41.601Z,27.2
2022-08-12T09:37:52.932Z,27.6
2022-08-12T09:51:10.910Z,28
2022-08-12T09:58:07.156Z,27.9
2022-08-12T10:04:51.838Z,28
2022-08-12T10:10:47.432Z,28
2022-08-12T10:22:57.814Z,28.3
2022-08-12T10:29:02.245Z,28.4
2022-08-12T10:36:47.309Z,28.2
2022-08-12T10:43:11.511Z,28.2
2022-08-12T10:50:02.061Z,28.6
2022-08-12T11:04:39.196Z,28.8
2022-08-12T11:14:48.866Z,28.5
2022-08-12T11:21:15.874Z,28.8
2022-08-12T11:27:44.707Z,28.9
2022-08-12T11:34:03.983Z,29
2022-08-12T11:40:43.884Z,29.1
2022-08-12T11:46:36.802Z,29.2
2022-08-12T11:52:51.337Z,29.5
2022-08-12T12:08:36.923Z,29.5
2022-08-12T12:14:47.767Z,29.2
2022-08-12T12:20:58.300Z,30
2022-08-12T12:27:02.391Z,29.7
2022-08-12T12:33:02.251Z,29.8
2022-08-12T12:39:02.338Z,30
2022-08-12T12:45:19.222Z,30.2
2022-08-12T12:51:22.299Z,29.9
2022-08-12T12:58:11.596Z,30.3
2022-08-12T13:04:04.194Z,29.8
2022-08-12T13:10:06.847Z,30.4
2022-08-12T13:15:59.786Z,30
2022-08-12T13:28:10.787Z,30.4
2022-08-12T13:34:28.800Z,30.3
2022-08-12T13:40:26.704Z,30.3
2022-08-12T13:46:19.500Z,30.4
2022-08-12T13:52:10.577Z,30.7
2022-08-12T13:58:04.360Z,30.8
2022-08-12T14:04:11.328Z,30.6
2022-08-12T14:10:05.968Z,30.5
2022-08-12T14:16:05.003Z,30.8
2022-08-12T14:22:34.943Z,30.8
2022-08-12T14:29:56.362Z,30.8
2022-08-12T14:36:16.393Z,30.7
2022-08-12T14:42:11.127Z,31
2022-08-12T14:48:03.001Z,30.9
2022-08-12T14:55:47.190Z,31
2022-08-12T15:03:53.148Z,30.9
2022-08-12T15:09:48.317Z,31.2
2022-08-12T15:15:46.149Z,31
2022-08-12T15:22:36.255Z,31
2022-08-12T15:28:54.003Z,30.9
2022-08-12T15:34:44.172Z,30.9
2022-08-12T15:40:46.693Z,31.1
2022-08-12T15:46:39.447Z,30.9
2022-08-12T15:52:35.183Z,31.2
2022-08-12T15:58:30.842Z,31
2022-08-12T16:04:27.610Z,30.8
2022-08-12T16:10:25.391Z,30.9
2022-08-12T16:16:28.864Z,30.9
2022-08-12T16:22:26.477Z,30.9
2022-08-12T16:28:22.169Z,31
2022-08-12T16:34:25.630Z,31
2022-08-12T16:41:56.428Z,31
2022-08-12T16:51:22.011Z,30.9
2022-08-12T16:57:34.744Z,30.6
2022-08-12T17:03:33.809Z,30.5
2022-08-12T17:09:42.866Z,30.6
2022-08-12T17:15:51.511Z,30.4
2022-08-12T17:22:14.694Z,30.3
2022-08-12T17:28:16.628Z,30.4
2022-08-12T17:34:17.521Z,30.2
2022-08-12T17:40:35.421Z,30.1
2022-08-12T17:46:32.042Z,30
2022-08-12T17:52:33.244Z,30
2022-08-12T17:58:35.434Z,29.9
2022-08-12T18:04:52.962Z,29.7
2022-08-12T18:11:11.683Z,29.6
2022-08-12T18:17:59.421Z,29.4
2022-08-12T18:24:03.069Z,29.2
2022-08-12T18:30:21.133Z,29.1
2022-08-12T18:36:23.467Z,28.9
2022-08-12T18:42:15.152Z,28.7
2022-08-12T18:48:06.625Z,28.5
2022-08-12T18:54:05.921Z,28.4
2022-08-12T19:00:10.186Z,28.3
2022-08-12T19:06:00.805Z,28.1
2022-08-12T19:12:01.488Z,28
2022-08-12T19:17:57.038Z,27.8
2022-08-12T19:23:52.355Z,27.7
2022-08-12T19:30:06.640Z,27.4
2022-08-12T19:36:24.859Z,27.2
2022-08-12T19:42:15.538Z,26.6
2022-08-12T19:48:17.638Z,26.3
2022-08-12T19:54:11.598Z,26.2
2022-08-12T20:00:07.246Z,25.9
2022-08-12T20:06:04.261Z,25.6
2022-08-12T20:12:22.625Z,25.5
2022-08-12T20:19:18.015Z,25.2
2022-08-12T20:26:01.771Z,25.2
2022-08-12T20:32:02.298Z,25
2022-08-12T20:38:04.765Z,24.8
2022-08-12T20:44:20.739Z,24.4
2022-08-12T20:50:12.048Z,24.6
2022-08-12T20:56:03.379Z,24.2
2022-08-12T21:02:15.921Z,24.2
2022-08-12T21:08:17.744Z,24.2
2022-08-12T21:14:16.407Z,24
2022-08-12T21:21:00.019Z,24.2
2022-08-12T21:26:53.501Z,24.1
2022-08-12T21:33:00.452Z,24.5
2022-08-12T21:39:18.240Z,24.5
2022-08-12T21:45:45.199Z,24.2
2022-08-12T21:52:18.422Z,24.4
2022-08-12T21:58:32.557Z,24.3
2022-08-12T22:04:25.790Z,24.1
2022-08-12T22:10:20.059Z,23.9
2022-08-12T22:16:21.287Z,24
2022-08-12T22:22:34.698Z,23.8
2022-08-12T22:28:42.896Z,23.9
2022-08-12T22:34:40.382Z,23.6
2022-08-12T22:40:32.230Z,23.3
2022-08-12T22:46:30.342Z,23.1
2022-08-12T22:52:24.260Z,23.3
2022-08-12T22:58:22.311Z,23.5
2022-08-12T23:04:28.111Z,23.5
2022-08-12T23:10:30.843Z,23.5
2022-08-12T23:16:33.352Z,23.7
2022-08-12T23:22:37.173Z,23.5
2022-08-12T23:28:52.621Z,23.2
2022-08-12T23:35:18.692Z,22.5
2022-08-12T23:41:55.828Z,22.7
2022-08-12T23:48:18.051Z,22.5
2022-08-12T23:54:33.025Z,22.9
